This is the latest recevied weather packets stored in our database for station/object KO4FR. If no packets are shown the sender has not sent any weather packets the latest 10 day(s).
| Time | Temp. | Humidity | Pressure | Rain* | Wind** | Luminosity | Snow |
|---|---|---|---|---|---|---|---|
| 1777378209 | 8.33° C | 29% | 1024.5 hPa | 0 mm | - | - | - |
| 1777377910 | 8.33° C | 23% | 1024.6 hPa | 0 mm | - | - | - |
| 1777377610 | 7.78° C | 17% | 1024.8 hPa | 0 mm | - | - | - |
| 1777377309 | 7.78° C | 15% | 1024.8 hPa | 0 mm | - | - | - |
| 1777377010 | 7.78° C | 13% | 1024.8 hPa | 0 mm | - | - | - |
| 1777376710 | 7.22° C | 12% | 1024.8 hPa | 0 mm | - | - | - |
| 1777376409 | 7.22° C | 11% | 1024.8 hPa | 0 mm | - | - | - |
| 1777376109 | 6.67° C | 12% | 1024.7 hPa | 0 mm | - | - | - |
| 1777375809 | 6.67° C | 12% | 1024.7 hPa | 0 mm | - | - | - |
| 1777375509 | 6.67° C | 13% | 1024.7 hPa | 0 mm | - | - | - |
| 1777375209 | 6.11° C | 13% | 1024.6 hPa | 0 mm | - | - | - |
| 1777374909 | 6.11° C | 15% | 1024.3 hPa | 0 mm | - | - | - |
| 1777374609 | 5.56° C | 16% | 1024.2 hPa | 0 mm | - | - | - |
| 1777374309 | 5.56° C | 17% | 1023.9 hPa | 0 mm | - | - | - |
| 1777374009 | 5.56° C | 18% | 1023.3 hPa | 0 mm | - | - | - |
| 1777373709 | 5° C | 20% | 1023 hPa | 0 mm | - | - | - |
| 1777373409 | 5° C | 23% | 1022.7 hPa | 0 mm | - | - | - |
| 1777373109 | 5° C | 24% | 1022.7 hPa | 0 mm | - | - | - |
| 1777372809 | 5° C | 24% | 1022.4 hPa | 0 mm | - | - | - |
| 1777372510 | 5° C | 25% | 1022.5 hPa | 0 mm | - | - | - |
| 1777372210 | 5° C | 25% | 1022.5 hPa | 0 mm | - | - | - |
| 1777371909 | 5° C | 27% | 1022.5 hPa | 0 mm | - | - | - |
| 1777371609 | 5° C | 27% | 1022.6 hPa | 0 mm | - | - | - |
| 1777371309 | 5° C | 27% | 1022.7 hPa | 0 mm | - | - | - |
| 1777371009 | 5° C | 26% | 1022.7 hPa | 0 mm | - | - | - |
* Rain latest hour (hover to see other rain measurements)
** Current wind speed in m/s (hover to see current wind gust speed)